sensor_id;sensor_type;location;lat;lon;timestamp;temperature;humidity
23160;DHT22;11748;50.844;4.396;2023-08-06T00:00:25;17.20;99.90
23160;DHT22;11748;50.844;4.396;2023-08-06T00:02:53;17.20;99.90
23160;DHT22;11748;50.844;4.396;2023-08-06T00:05:23;17.20;99.90
23160;DHT22;11748;50.844;4.396;2023-08-06T00:07:50;17.20;99.90
23160;DHT22;11748;50.844;4.396;2023-08-06T00:10:21;17.20;99.90
23160;DHT22;11748;50.844;4.396;2023-08-06T00:12:49;17.30;99.90
23160;DHT22;11748;50.844;4.396;2023-08-06T00:15:15;17.40;99.90
23160;DHT22;11748;50.844;4.396;2023-08-06T00:17:48;17.40;99.90
23160;DHT22;11748;50.844;4.396;2023-08-06T00:20:17;17.50;99.90
23160;DHT22;11748;50.844;4.396;2023-08-06T00:22:46;17.50;99.90
23160;DHT22;11748;50.844;4.396;2023-08-06T00:25:13;17.50;99.90
23160;DHT22;11748;50.844;4.396;2023-08-06T00:27:40;17.50;99.90
23160;DHT22;11748;50.844;4.396;2023-08-06T00:30:06;17.50;99.90
23160;DHT22;11748;50.844;4.396;2023-08-06T00:32:38;17.50;99.90
23160;DHT22;11748;50.844;4.396;2023-08-06T00:35:08;17.50;99.90
23160;DHT22;11748;50.844;4.396;2023-08-06T00:37:38;17.50;99.90
23160;DHT22;11748;50.844;4.396;2023-08-06T00:40:06;17.40;99.90
23160;DHT22;11748;50.844;4.396;2023-08-06T00:42:39;17.50;99.90
23160;DHT22;11748;50.844;4.396;2023-08-06T00:45:06;17.30;99.90
23160;DHT22;11748;50.844;4.396;2023-08-06T00:47:33;17.30;99.90
23160;DHT22;11748;50.844;4.396;2023-08-06T00:49:59;17.40;99.90
23160;DHT22;11748;50.844;4.396;2023-08-06T00:52:26;17.30;99.90
23160;DHT22;11748;50.844;4.396;2023-08-06T00:54:58;17.00;99.90
23160;DHT22;11748;50.844;4.396;2023-08-06T00:57:28;16.90;99.90
23160;DHT22;11748;50.844;4.396;2023-08-06T00:59:59;16.80;99.90
23160;DHT22;11748;50.844;4.396;2023-08-06T01:02:26;16.90;99.90
23160;DHT22;11748;50.844;4.396;2023-08-06T01:04:52;17.10;99.90
23160;DHT22;11748;50.844;4.396;2023-08-06T01:07:43;17.00;99.90
23160;DHT22;11748;50.844;4.396;2023-08-06T01:15:48;16.50;99.90
23160;DHT22;11748;50.844;4.396;2023-08-06T01:18:17;16.50;99.90
23160;DHT22;11748;50.844;4.396;2023-08-06T01:20:43;16.40;99.90
23160;DHT22;11748;50.844;4.396;2023-08-06T01:23:10;16.40;99.90
23160;DHT22;11748;50.844;4.396;2023-08-06T01:28:42;16.40;99.90
23160;DHT22;11748;50.844;4.396;2023-08-06T01:31:23;16.30;99.90
23160;DHT22;11748;50.844;4.396;2023-08-06T01:33:54;16.20;99.90
23160;DHT22;11748;50.844;4.396;2023-08-06T01:36:24;16.20;99.90
23160;DHT22;11748;50.844;4.396;2023-08-06T01:38:56;16.20;99.90
23160;DHT22;11748;50.844;4.396;2023-08-06T01:41:22;16.20;99.90
23160;DHT22;11748;50.844;4.396;2023-08-06T01:43:59;16.20;99.90
23160;DHT22;11748;50.844;4.396;2023-08-06T01:46:30;16.20;99.90
23160;DHT22;11748;50.844;4.396;2023-08-06T01:48:56;16.40;99.90
23160;DHT22;11748;50.844;4.396;2023-08-06T01:51:24;16.40;99.90
23160;DHT22;11748;50.844;4.396;2023-08-06T01:53:52;16.40;99.90
23160;DHT22;11748;50.844;4.396;2023-08-06T01:56:17;16.30;99.90
23160;DHT22;11748;50.844;4.396;2023-08-06T01:58:44;16.30;99.90
23160;DHT22;11748;50.844;4.396;2023-08-06T02:01:10;16.30;99.90
23160;DHT22;11748;50.844;4.396;2023-08-06T02:03:35;16.40;99.90
23160;DHT22;11748;50.844;4.396;2023-08-06T02:06:02;16.50;99.90
23160;DHT22;11748;50.844;4.396;2023-08-06T02:08:28;16.50;99.90
23160;DHT22;11748;50.844;4.396;2023-08-06T02:10:53;16.50;99.90
23160;DHT22;11748;50.844;4.396;2023-08-06T02:13:19;16.50;99.90
23160;DHT22;11748;50.844;4.396;2023-08-06T02:15:45;16.50;99.90
23160;DHT22;11748;50.844;4.396;2023-08-06T02:18:15;16.50;99.90
23160;DHT22;11748;50.844;4.396;2023-08-06T02:20:41;16.50;99.90
23160;DHT22;11748;50.844;4.396;2023-08-06T02:23:07;16.50;99.90
23160;DHT22;11748;50.844;4.396;2023-08-06T02:25:33;16.50;99.90
23160;DHT22;11748;50.844;4.396;2023-08-06T02:27:59;16.50;99.90
23160;DHT22;11748;50.844;4.396;2023-08-06T02:30:24;16.50;99.90
23160;DHT22;11748;50.844;4.396;2023-08-06T02:32:50;16.50;99.90
23160;DHT22;11748;50.844;4.396;2023-08-06T02:35:16;16.50;99.90
23160;DHT22;11748;50.844;4.396;2023-08-06T02:37:41;16.60;99.90
23160;DHT22;11748;50.844;4.396;2023-08-06T02:40:07;16.80;99.90
23160;DHT22;11748;50.844;4.396;2023-08-06T02:42:33;16.90;99.90
23160;DHT22;11748;50.844;4.396;2023-08-06T02:44:59;16.80;99.90
23160;DHT22;11748;50.844;4.396;2023-08-06T02:47:25;16.90;99.90
23160;DHT22;11748;50.844;4.396;2023-08-06T02:49:50;16.70;99.90
23160;DHT22;11748;50.844;4.396;2023-08-06T02:52:16;16.50;99.90
23160;DHT22;11748;50.844;4.396;2023-08-06T02:54:42;16.40;99.90
23160;DHT22;11748;50.844;4.396;2023-08-06T02:57:08;16.40;99.90
23160;DHT22;11748;50.844;4.396;2023-08-06T02:59:35;16.30;99.90
23160;DHT22;11748;50.844;4.396;2023-08-06T03:02:01;16.40;99.90
23160;DHT22;11748;50.844;4.396;2023-08-06T03:04:27;16.40;99.90
23160;DHT22;11748;50.844;4.396;2023-08-06T03:06:52;16.30;99.90
23160;DHT22;11748;50.844;4.396;2023-08-06T03:09:18;16.20;99.90
23160;DHT22;11748;50.844;4.396;2023-08-06T03:11:44;16.30;99.90
23160;DHT22;11748;50.844;4.396;2023-08-06T03:14:10;16.20;99.90
23160;DHT22;11748;50.844;4.396;2023-08-06T03:16:35;16.10;99.90
23160;DHT22;11748;50.844;4.396;2023-08-06T03:19:01;16.10;99.90
23160;DHT22;11748;50.844;4.396;2023-08-06T03:21:27;16.20;99.90
23160;DHT22;11748;50.844;4.396;2023-08-06T03:23:52;16.20;99.90
23160;DHT22;11748;50.844;4.396;2023-08-06T03:26:24;16.30;99.90
23160;DHT22;11748;50.844;4.396;2023-08-06T03:28:50;16.10;99.90
23160;DHT22;11748;50.844;4.396;2023-08-06T03:31:15;16.20;99.90
23160;DHT22;11748;50.844;4.396;2023-08-06T03:33:41;16.20;99.90
23160;DHT22;11748;50.844;4.396;2023-08-06T03:36:07;16.20;99.90
23160;DHT22;11748;50.844;4.396;2023-08-06T03:38:32;16.10;99.90
23160;DHT22;11748;50.844;4.396;2023-08-06T03:40:58;16.10;99.90
23160;DHT22;11748;50.844;4.396;2023-08-06T03:43:24;16.10;99.90
23160;DHT22;11748;50.844;4.396;2023-08-06T03:45:50;16.00;99.90
23160;DHT22;11748;50.844;4.396;2023-08-06T03:48:15;16.00;99.90
23160;DHT22;11748;50.844;4.396;2023-08-06T03:50:41;16.00;99.90
23160;DHT22;11748;50.844;4.396;2023-08-06T03:53:07;16.10;99.90
23160;DHT22;11748;50.844;4.396;2023-08-06T03:55:33;16.10;99.90
23160;DHT22;11748;50.844;4.396;2023-08-06T03:57:58;16.10;99.90
23160;DHT22;11748;50.844;4.396;2023-08-06T04:00:24;16.10;99.90
23160;DHT22;11748;50.844;4.396;2023-08-06T04:02:50;16.10;99.90
23160;DHT22;11748;50.844;4.396;2023-08-06T04:05:16;16.00;99.90
23160;DHT22;11748;50.844;4.396;2023-08-06T04:07:43;16.00;99.90
23160;DHT22;11748;50.844;4.396;2023-08-06T04:10:09;15.90;99.90
23160;DHT22;11748;50.844;4.396;2023-08-06T04:12:35;15.80;99.90
23160;DHT22;11748;50.844;4.396;2023-08-06T04:15:03;15.80;99.90
23160;DHT22;11748;50.844;4.396;2023-08-06T04:17:29;15.70;99.90
23160;DHT22;11748;50.844;4.396;2023-08-06T04:19:55;15.70;99.90
23160;DHT22;11748;50.844;4.396;2023-08-06T04:22:23;15.50;99.90
23160;DHT22;11748;50.844;4.396;2023-08-06T04:24:49;15.40;99.90
23160;DHT22;11748;50.844;4.396;2023-08-06T04:27:16;15.40;99.90
23160;DHT22;11748;50.844;4.396;2023-08-06T04:29:42;15.30;99.90
23160;DHT22;11748;50.844;4.396;2023-08-06T04:32:08;15.30;99.90
23160;DHT22;11748;50.844;4.396;2023-08-06T04:34:35;15.20;99.90
23160;DHT22;11748;50.844;4.396;2023-08-06T04:37:02;15.20;99.90
23160;DHT22;11748;50.844;4.396;2023-08-06T04:39:28;15.10;99.90
23160;DHT22;11748;50.844;4.396;2023-08-06T04:41:54;15.00;99.90
23160;DHT22;11748;50.844;4.396;2023-08-06T04:44:20;15.00;99.90
23160;DHT22;11748;50.844;4.396;2023-08-06T04:46:46;15.00;99.90
23160;DHT22;11748;50.844;4.396;2023-08-06T04:49:12;14.90;99.90
23160;DHT22;11748;50.844;4.396;2023-08-06T04:51:39;14.90;99.90
23160;DHT22;11748;50.844;4.396;2023-08-06T04:54:05;14.80;99.90
23160;DHT22;11748;50.844;4.396;2023-08-06T04:56:31;14.90;99.90
23160;DHT22;11748;50.844;4.396;2023-08-06T04:58:58;14.80;99.90
23160;DHT22;11748;50.844;4.396;2023-08-06T05:01:24;14.80;99.90
23160;DHT22;11748;50.844;4.396;2023-08-06T05:03:51;14.70;99.90
23160;DHT22;11748;50.844;4.396;2023-08-06T05:06:17;14.70;99.90
23160;DHT22;11748;50.844;4.396;2023-08-06T05:08:43;14.60;99.90
23160;DHT22;11748;50.844;4.396;2023-08-06T05:11:09;14.70;99.90
23160;DHT22;11748;50.844;4.396;2023-08-06T05:13:35;14.70;99.90
23160;DHT22;11748;50.844;4.396;2023-08-06T05:16:01;14.60;99.90
23160;DHT22;11748;50.844;4.396;2023-08-06T05:18:26;14.60;99.90
23160;DHT22;11748;50.844;4.396;2023-08-06T05:20:52;14.60;99.90
23160;DHT22;11748;50.844;4.396;2023-08-06T05:23:17;14.60;99.90
23160;DHT22;11748;50.844;4.396;2023-08-06T05:25:43;14.60;99.90
23160;DHT22;11748;50.844;4.396;2023-08-06T05:28:09;14.60;99.90
23160;DHT22;11748;50.844;4.396;2023-08-06T05:30:39;14.60;99.90
23160;DHT22;11748;50.844;4.396;2023-08-06T05:33:05;14.60;99.90
23160;DHT22;11748;50.844;4.396;2023-08-06T05:35:30;14.60;99.90
23160;DHT22;11748;50.844;4.396;2023-08-06T05:37:56;14.70;99.90
23160;DHT22;11748;50.844;4.396;2023-08-06T05:40:22;14.70;99.90
23160;DHT22;11748;50.844;4.396;2023-08-06T05:42:48;14.70;99.90
23160;DHT22;11748;50.844;4.396;2023-08-06T05:45:14;14.70;99.90
23160;DHT22;11748;50.844;4.396;2023-08-06T05:47:41;14.70;99.90
23160;DHT22;11748;50.844;4.396;2023-08-06T05:50:07;14.70;99.90
23160;DHT22;11748;50.844;4.396;2023-08-06T05:52:34;14.90;99.90
23160;DHT22;11748;50.844;4.396;2023-08-06T05:54:59;14.70;99.90
23160;DHT22;11748;50.844;4.396;2023-08-06T05:57:25;14.60;99.90
23160;DHT22;11748;50.844;4.396;2023-08-06T05:59:51;14.70;99.90
23160;DHT22;11748;50.844;4.396;2023-08-06T06:02:16;14.70;99.90
23160;DHT22;11748;50.844;4.396;2023-08-06T06:04:44;14.70;99.90
23160;DHT22;11748;50.844;4.396;2023-08-06T06:07:09;14.70;99.90
23160;DHT22;11748;50.844;4.396;2023-08-06T06:09:36;14.70;99.90
23160;DHT22;11748;50.844;4.396;2023-08-06T06:12:02;14.70;99.90
23160;DHT22;11748;50.844;4.396;2023-08-06T06:14:28;14.80;99.90
23160;DHT22;11748;50.844;4.396;2023-08-06T06:16:53;14.90;99.90
23160;DHT22;11748;50.844;4.396;2023-08-06T06:19:19;14.90;99.90
23160;DHT22;11748;50.844;4.396;2023-08-06T06:21:44;14.90;99.90
23160;DHT22;11748;50.844;4.396;2023-08-06T06:24:10;15.00;99.90
23160;DHT22;11748;50.844;4.396;2023-08-06T06:26:36;15.00;99.90
23160;DHT22;11748;50.844;4.396;2023-08-06T06:29:01;15.10;99.90
23160;DHT22;11748;50.844;4.396;2023-08-06T06:31:27;15.10;99.90
23160;DHT22;11748;50.844;4.396;2023-08-06T06:33:54;15.20;99.90
23160;DHT22;11748;50.844;4.396;2023-08-06T06:36:20;15.30;99.90
23160;DHT22;11748;50.844;4.396;2023-08-06T06:38:46;15.30;99.90
23160;DHT22;11748;50.844;4.396;2023-08-06T06:41:13;15.30;99.90
23160;DHT22;11748;50.844;4.396;2023-08-06T06:43:38;15.30;99.90
23160;DHT22;11748;50.844;4.396;2023-08-06T06:46:05;15.40;99.90
23160;DHT22;11748;50.844;4.396;2023-08-06T06:48:32;15.40;99.90
23160;DHT22;11748;50.844;4.396;2023-08-06T06:50:58;15.40;99.90
23160;DHT22;11748;50.844;4.396;2023-08-06T06:53:25;15.40;99.90
23160;DHT22;11748;50.844;4.396;2023-08-06T06:56:03;15.60;99.90
23160;DHT22;11748;50.844;4.396;2023-08-06T06:58:30;15.50;99.90
23160;DHT22;11748;50.844;4.396;2023-08-06T07:00:55;15.50;99.90
23160;DHT22;11748;50.844;4.396;2023-08-06T07:03:21;15.50;99.90
23160;DHT22;11748;50.844;4.396;2023-08-06T07:05:47;15.50;99.90
23160;DHT22;11748;50.844;4.396;2023-08-06T07:08:13;15.30;99.90
23160;DHT22;11748;50.844;4.396;2023-08-06T07:10:41;15.20;99.90
23160;DHT22;11748;50.844;4.396;2023-08-06T07:13:07;15.20;99.90
23160;DHT22;11748;50.844;4.396;2023-08-06T07:15:33;15.30;99.90
23160;DHT22;11748;50.844;4.396;2023-08-06T07:17:59;15.30;99.90
23160;DHT22;11748;50.844;4.396;2023-08-06T07:20:24;15.30;99.90
23160;DHT22;11748;50.844;4.396;2023-08-06T07:22:50;15.40;99.90
23160;DHT22;11748;50.844;4.396;2023-08-06T07:25:16;15.40;99.90
23160;DHT22;11748;50.844;4.396;2023-08-06T07:27:42;15.50;99.90
23160;DHT22;11748;50.844;4.396;2023-08-06T07:30:08;15.30;99.90
23160;DHT22;11748;50.844;4.396;2023-08-06T07:32:34;15.30;99.90
23160;DHT22;11748;50.844;4.396;2023-08-06T07:35:00;15.40;99.90
23160;DHT22;11748;50.844;4.396;2023-08-06T07:37:29;15.40;99.90
23160;DHT22;11748;50.844;4.396;2023-08-06T07:39:55;15.40;99.90
23160;DHT22;11748;50.844;4.396;2023-08-06T07:42:22;15.50;99.90
23160;DHT22;11748;50.844;4.396;2023-08-06T07:44:56;15.60;99.90
23160;DHT22;11748;50.844;4.396;2023-08-06T07:47:22;15.70;99.90
23160;DHT22;11748;50.844;4.396;2023-08-06T07:49:48;15.60;99.90
23160;DHT22;11748;50.844;4.396;2023-08-06T07:52:14;15.80;99.90
23160;DHT22;11748;50.844;4.396;2023-08-06T07:54:40;15.90;99.90
23160;DHT22;11748;50.844;4.396;2023-08-06T07:57:06;16.00;99.90
23160;DHT22;11748;50.844;4.396;2023-08-06T07:59:32;15.90;99.90
23160;DHT22;11748;50.844;4.396;2023-08-06T08:01:58;15.90;99.90
23160;DHT22;11748;50.844;4.396;2023-08-06T08:04:23;15.90;99.90
23160;DHT22;11748;50.844;4.396;2023-08-06T08:06:49;16.00;99.90
23160;DHT22;11748;50.844;4.396;2023-08-06T08:09:15;16.00;99.90
23160;DHT22;11748;50.844;4.396;2023-08-06T08:11:41;16.10;99.90
23160;DHT22;11748;50.844;4.396;2023-08-06T08:14:07;16.20;99.90
23160;DHT22;11748;50.844;4.396;2023-08-06T08:16:33;16.40;99.90
23160;DHT22;11748;50.844;4.396;2023-08-06T08:18:59;16.40;99.90
23160;DHT22;11748;50.844;4.396;2023-08-06T08:21:25;16.40;99.90
23160;DHT22;11748;50.844;4.396;2023-08-06T08:23:51;16.20;99.90
23160;DHT22;11748;50.844;4.396;2023-08-06T08:26:17;16.20;99.90
23160;DHT22;11748;50.844;4.396;2023-08-06T08:28:43;16.10;99.90
23160;DHT22;11748;50.844;4.396;2023-08-06T08:31:09;15.90;99.90
23160;DHT22;11748;50.844;4.396;2023-08-06T08:33:37;15.70;99.90
23160;DHT22;11748;50.844;4.396;2023-08-06T08:36:03;15.50;99.90
23160;DHT22;11748;50.844;4.396;2023-08-06T08:38:29;15.40;99.90
23160;DHT22;11748;50.844;4.396;2023-08-06T08:40:55;15.50;99.90
23160;DHT22;11748;50.844;4.396;2023-08-06T08:43:21;15.60;99.90
23160;DHT22;11748;50.844;4.396;2023-08-06T08:45:50;15.50;99.90
23160;DHT22;11748;50.844;4.396;2023-08-06T08:48:16;15.50;99.90
23160;DHT22;11748;50.844;4.396;2023-08-06T08:50:45;15.60;99.90
23160;DHT22;11748;50.844;4.396;2023-08-06T08:53:11;15.80;99.90
23160;DHT22;11748;50.844;4.396;2023-08-06T08:55:38;15.80;99.90
23160;DHT22;11748;50.844;4.396;2023-08-06T08:58:04;15.70;99.90
23160;DHT22;11748;50.844;4.396;2023-08-06T09:00:30;15.80;99.90
23160;DHT22;11748;50.844;4.396;2023-08-06T09:02:59;15.90;99.90
23160;DHT22;11748;50.844;4.396;2023-08-06T09:05:28;15.90;99.90
23160;DHT22;11748;50.844;4.396;2023-08-06T09:07:55;15.90;99.90
23160;DHT22;11748;50.844;4.396;2023-08-06T09:10:24;16.20;99.90
23160;DHT22;11748;50.844;4.396;2023-08-06T09:12:52;16.10;99.90
23160;DHT22;11748;50.844;4.396;2023-08-06T09:15:20;16.20;99.90
23160;DHT22;11748;50.844;4.396;2023-08-06T09:17:45;16.30;99.90
23160;DHT22;11748;50.844;4.396;2023-08-06T09:20:15;16.40;99.90
23160;DHT22;11748;50.844;4.396;2023-08-06T09:22:41;16.40;99.90
23160;DHT22;11748;50.844;4.396;2023-08-06T09:25:07;16.30;99.90
23160;DHT22;11748;50.844;4.396;2023-08-06T09:27:37;16.20;99.90
23160;DHT22;11748;50.844;4.396;2023-08-06T09:30:04;16.20;99.90
23160;DHT22;11748;50.844;4.396;2023-08-06T09:32:48;16.10;99.90
23160;DHT22;11748;50.844;4.396;2023-08-06T09:35:18;16.00;99.90
23160;DHT22;11748;50.844;4.396;2023-08-06T09:37:45;16.00;99.90
23160;DHT22;11748;50.844;4.396;2023-08-06T09:40:30;15.90;99.90
23160;DHT22;11748;50.844;4.396;2023-08-06T09:42:56;15.80;99.90
23160;DHT22;11748;50.844;4.396;2023-08-06T09:45:23;15.70;99.90
23160;DHT22;11748;50.844;4.396;2023-08-06T09:47:50;15.60;99.90
23160;DHT22;11748;50.844;4.396;2023-08-06T09:50:20;15.50;99.90
23160;DHT22;11748;50.844;4.396;2023-08-06T09:52:50;15.40;99.90
23160;DHT22;11748;50.844;4.396;2023-08-06T09:55:18;15.40;99.90
23160;DHT22;11748;50.844;4.396;2023-08-06T09:57:45;15.40;99.90
23160;DHT22;11748;50.844;4.396;2023-08-06T10:00:11;15.40;99.90
23160;DHT22;11748;50.844;4.396;2023-08-06T10:02:38;15.60;99.90
23160;DHT22;11748;50.844;4.396;2023-08-06T10:05:05;15.50;99.90
23160;DHT22;11748;50.844;4.396;2023-08-06T10:07:31;15.50;99.90
23160;DHT22;11748;50.844;4.396;2023-08-06T10:09:58;15.60;99.90
23160;DHT22;11748;50.844;4.396;2023-08-06T10:12:25;15.80;99.90
23160;DHT22;11748;50.844;4.396;2023-08-06T10:14:54;15.90;99.90
23160;DHT22;11748;50.844;4.396;2023-08-06T10:17:21;15.90;99.90
23160;DHT22;11748;50.844;4.396;2023-08-06T10:19:48;15.80;99.90
23160;DHT22;11748;50.844;4.396;2023-08-06T10:22:16;15.90;99.90
23160;DHT22;11748;50.844;4.396;2023-08-06T10:24:56;15.90;99.90
23160;DHT22;11748;50.844;4.396;2023-08-06T10:30:30;15.50;99.90
23160;DHT22;11748;50.844;4.396;2023-08-06T10:33:01;15.40;99.90
23160;DHT22;11748;50.844;4.396;2023-08-06T10:35:50;15.50;99.90
23160;DHT22;11748;50.844;4.396;2023-08-06T10:41:03;15.40;99.90
23160;DHT22;11748;50.844;4.396;2023-08-06T10:43:38;15.40;99.90
23160;DHT22;11748;50.844;4.396;2023-08-06T10:46:28;15.20;99.90
23160;DHT22;11748;50.844;4.396;2023-08-06T10:48:55;15.10;99.90
23160;DHT22;11748;50.844;4.396;2023-08-06T10:51:21;15.10;99.90
23160;DHT22;11748;50.844;4.396;2023-08-06T10:53:48;15.00;99.90
23160;DHT22;11748;50.844;4.396;2023-08-06T10:56:19;15.10;99.90
23160;DHT22;11748;50.844;4.396;2023-08-06T10:58:47;15.20;99.90
23160;DHT22;11748;50.844;4.396;2023-08-06T11:01:14;15.20;99.90
23160;DHT22;11748;50.844;4.396;2023-08-06T11:03:41;15.40;99.90
23160;DHT22;11748;50.844;4.396;2023-08-06T11:06:08;15.40;99.90
23160;DHT22;11748;50.844;4.396;2023-08-06T11:08:36;15.50;99.90
23160;DHT22;11748;50.844;4.396;2023-08-06T11:11:10;15.50;99.90
23160;DHT22;11748;50.844;4.396;2023-08-06T11:13:46;15.60;99.90
23160;DHT22;11748;50.844;4.396;2023-08-06T11:16:23;15.60;99.90
23160;DHT22;11748;50.844;4.396;2023-08-06T11:18:52;15.60;99.90
23160;DHT22;11748;50.844;4.396;2023-08-06T11:21:23;15.60;99.90
23160;DHT22;11748;50.844;4.396;2023-08-06T11:23:51;15.60;99.90
23160;DHT22;11748;50.844;4.396;2023-08-06T11:26:20;15.60;99.90
23160;DHT22;11748;50.844;4.396;2023-08-06T11:28:47;15.70;99.90
23160;DHT22;11748;50.844;4.396;2023-08-06T11:31:23;15.90;99.90
23160;DHT22;11748;50.844;4.396;2023-08-06T11:33:53;15.90;99.90
23160;DHT22;11748;50.844;4.396;2023-08-06T11:36:32;16.00;99.90
23160;DHT22;11748;50.844;4.396;2023-08-06T11:39:02;16.00;99.90
23160;DHT22;11748;50.844;4.396;2023-08-06T11:41:35;16.00;99.90
23160;DHT22;11748;50.844;4.396;2023-08-06T11:44:03;15.90;99.90
23160;DHT22;11748;50.844;4.396;2023-08-06T11:46:29;15.90;99.90
23160;DHT22;11748;50.844;4.396;2023-08-06T11:49:14;15.90;99.90
23160;DHT22;11748;50.844;4.396;2023-08-06T11:51:40;15.90;99.90
23160;DHT22;11748;50.844;4.396;2023-08-06T11:54:05;15.70;99.90
23160;DHT22;11748;50.844;4.396;2023-08-06T11:56:32;15.50;99.90
23160;DHT22;11748;50.844;4.396;2023-08-06T11:58:58;15.30;99.90
23160;DHT22;11748;50.844;4.396;2023-08-06T12:01:25;15.40;99.90
23160;DHT22;11748;50.844;4.396;2023-08-06T12:03:50;15.30;99.90
23160;DHT22;11748;50.844;4.396;2023-08-06T12:06:16;15.40;99.90
23160;DHT22;11748;50.844;4.396;2023-08-06T12:08:42;15.50;99.90
23160;DHT22;11748;50.844;4.396;2023-08-06T12:11:07;15.50;99.90
23160;DHT22;11748;50.844;4.396;2023-08-06T12:13:35;15.50;99.90
23160;DHT22;11748;50.844;4.396;2023-08-06T12:16:01;15.60;99.90
23160;DHT22;11748;50.844;4.396;2023-08-06T12:18:26;15.70;99.90
23160;DHT22;11748;50.844;4.396;2023-08-06T12:20:53;15.70;99.90
23160;DHT22;11748;50.844;4.396;2023-08-06T12:23:19;15.70;99.90
23160;DHT22;11748;50.844;4.396;2023-08-06T12:25:45;15.80;99.90
23160;DHT22;11748;50.844;4.396;2023-08-06T12:28:10;16.00;99.90
23160;DHT22;11748;50.844;4.396;2023-08-06T12:30:37;16.20;99.90
23160;DHT22;11748;50.844;4.396;2023-08-06T12:33:06;16.20;99.90
23160;DHT22;11748;50.844;4.396;2023-08-06T12:35:32;16.30;99.90
23160;DHT22;11748;50.844;4.396;2023-08-06T12:37:58;16.50;99.90
23160;DHT22;11748;50.844;4.396;2023-08-06T12:40:25;16.60;99.90
23160;DHT22;11748;50.844;4.396;2023-08-06T12:42:53;16.60;99.90
23160;DHT22;11748;50.844;4.396;2023-08-06T12:45:19;16.40;99.90
23160;DHT22;11748;50.844;4.396;2023-08-06T12:47:46;16.20;99.90
23160;DHT22;11748;50.844;4.396;2023-08-06T12:50:12;16.00;99.90
23160;DHT22;11748;50.844;4.396;2023-08-06T12:52:38;16.20;99.90
23160;DHT22;11748;50.844;4.396;2023-08-06T12:55:04;16.30;99.90
23160;DHT22;11748;50.844;4.396;2023-08-06T12:57:29;16.40;99.90
23160;DHT22;11748;50.844;4.396;2023-08-06T12:59:56;16.50;99.90
23160;DHT22;11748;50.844;4.396;2023-08-06T13:02:22;16.40;99.90
23160;DHT22;11748;50.844;4.396;2023-08-06T13:04:47;16.50;99.90
23160;DHT22;11748;50.844;4.396;2023-08-06T13:07:13;16.50;99.90
23160;DHT22;11748;50.844;4.396;2023-08-06T13:09:39;16.40;99.90
23160;DHT22;11748;50.844;4.396;2023-08-06T13:12:04;16.30;99.90
23160;DHT22;11748;50.844;4.396;2023-08-06T13:14:31;16.30;99.90
23160;DHT22;11748;50.844;4.396;2023-08-06T13:16:57;16.40;99.90
23160;DHT22;11748;50.844;4.396;2023-08-06T13:19:22;16.50;99.90
23160;DHT22;11748;50.844;4.396;2023-08-06T13:24:15;16.50;99.90
23160;DHT22;11748;50.844;4.396;2023-08-06T13:26:41;16.30;99.90
23160;DHT22;11748;50.844;4.396;2023-08-06T13:29:07;16.30;99.90
23160;DHT22;11748;50.844;4.396;2023-08-06T13:31:33;16.10;99.90
23160;DHT22;11748;50.844;4.396;2023-08-06T13:33:59;15.90;99.90
23160;DHT22;11748;50.844;4.396;2023-08-06T13:36:26;15.80;99.90
23160;DHT22;11748;50.844;4.396;2023-08-06T13:38:52;15.80;99.90
23160;DHT22;11748;50.844;4.396;2023-08-06T13:41:18;15.70;99.90
23160;DHT22;11748;50.844;4.396;2023-08-06T13:43:44;15.60;99.90
23160;DHT22;11748;50.844;4.396;2023-08-06T13:46:10;15.50;99.90
23160;DHT22;11748;50.844;4.396;2023-08-06T13:48:40;15.50;99.90
23160;DHT22;11748;50.844;4.396;2023-08-06T13:51:06;15.40;99.90
23160;DHT22;11748;50.844;4.396;2023-08-06T13:53:31;15.20;99.90
23160;DHT22;11748;50.844;4.396;2023-08-06T13:55:57;15.20;99.90
23160;DHT22;11748;50.844;4.396;2023-08-06T13:58:23;15.20;99.90
23160;DHT22;11748;50.844;4.396;2023-08-06T14:00:49;15.30;99.90
23160;DHT22;11748;50.844;4.396;2023-08-06T14:03:15;15.20;99.90
23160;DHT22;11748;50.844;4.396;2023-08-06T14:05:41;15.30;99.90
23160;DHT22;11748;50.844;4.396;2023-08-06T14:08:07;15.20;99.90
23160;DHT22;11748;50.844;4.396;2023-08-06T14:10:32;15.10;99.90
23160;DHT22;11748;50.844;4.396;2023-08-06T14:12:58;15.20;99.90
23160;DHT22;11748;50.844;4.396;2023-08-06T14:15:24;15.30;99.90
23160;DHT22;11748;50.844;4.396;2023-08-06T14:17:49;15.40;99.90
23160;DHT22;11748;50.844;4.396;2023-08-06T14:20:15;15.50;99.90
23160;DHT22;11748;50.844;4.396;2023-08-06T14:22:42;15.60;99.90
23160;DHT22;11748;50.844;4.396;2023-08-06T14:25:08;15.70;99.90
23160;DHT22;11748;50.844;4.396;2023-08-06T14:27:35;15.70;99.90
23160;DHT22;11748;50.844;4.396;2023-08-06T14:30:01;15.70;99.90
23160;DHT22;11748;50.844;4.396;2023-08-06T14:32:28;15.60;99.90
23160;DHT22;11748;50.844;4.396;2023-08-06T14:34:54;15.50;99.90
23160;DHT22;11748;50.844;4.396;2023-08-06T14:37:20;15.40;99.90
23160;DHT22;11748;50.844;4.396;2023-08-06T14:39:46;15.40;99.90
23160;DHT22;11748;50.844;4.396;2023-08-06T14:42:11;15.40;99.90
23160;DHT22;11748;50.844;4.396;2023-08-06T14:44:37;15.40;99.90
23160;DHT22;11748;50.844;4.396;2023-08-06T14:47:03;15.40;99.90
23160;DHT22;11748;50.844;4.396;2023-08-06T14:49:29;15.50;99.90
23160;DHT22;11748;50.844;4.396;2023-08-06T14:51:54;15.60;99.90
23160;DHT22;11748;50.844;4.396;2023-08-06T14:54:24;15.60;99.90
23160;DHT22;11748;50.844;4.396;2023-08-06T14:56:49;15.80;99.90
23160;DHT22;11748;50.844;4.396;2023-08-06T14:59:15;15.70;99.90
23160;DHT22;11748;50.844;4.396;2023-08-06T15:01:41;15.80;99.90
23160;DHT22;11748;50.844;4.396;2023-08-06T15:04:06;15.90;99.90
23160;DHT22;11748;50.844;4.396;2023-08-06T15:06:32;15.90;99.90
23160;DHT22;11748;50.844;4.396;2023-08-06T15:08:59;15.90;99.90
23160;DHT22;11748;50.844;4.396;2023-08-06T15:11:26;16.00;99.90
23160;DHT22;11748;50.844;4.396;2023-08-06T15:13:52;15.90;99.90
23160;DHT22;11748;50.844;4.396;2023-08-06T15:16:18;15.90;99.90
23160;DHT22;11748;50.844;4.396;2023-08-06T15:18:43;15.90;99.90
23160;DHT22;11748;50.844;4.396;2023-08-06T15:21:10;15.90;99.90
23160;DHT22;11748;50.844;4.396;2023-08-06T15:23:36;15.80;99.90
23160;DHT22;11748;50.844;4.396;2023-08-06T15:26:02;15.70;99.90
23160;DHT22;11748;50.844;4.396;2023-08-06T15:28:28;15.50;99.90
23160;DHT22;11748;50.844;4.396;2023-08-06T15:30:54;15.20;99.90
23160;DHT22;11748;50.844;4.396;2023-08-06T15:33:20;14.90;99.90
23160;DHT22;11748;50.844;4.396;2023-08-06T15:35:46;14.80;99.90
23160;DHT22;11748;50.844;4.396;2023-08-06T15:38:12;14.80;99.90
23160;DHT22;11748;50.844;4.396;2023-08-06T15:40:38;14.90;99.90
23160;DHT22;11748;50.844;4.396;2023-08-06T15:43:04;15.00;99.90
23160;DHT22;11748;50.844;4.396;2023-08-06T15:45:30;15.30;99.90